createdAt,value
2023-05-11T00:00:25.408Z,60.74
2023-05-11T00:03:15.402Z,60.79
2023-05-11T00:06:06.543Z,60.82
2023-05-11T00:08:37.621Z,60.64
2023-05-11T00:11:50.198Z,60.62
2023-05-11T00:14:38.758Z,60.65
2023-05-11T00:17:32.653Z,60.66
2023-05-11T00:20:34.594Z,60.79
2023-05-11T00:26:18.428Z,60.70
2023-05-11T00:29:22.228Z,60.71
2023-05-11T00:31:55.356Z,60.70
2023-05-11T00:35:20.566Z,60.94
2023-05-11T00:37:55.289Z,60.88
2023-05-11T00:40:35.320Z,61.02
2023-05-11T00:43:34.641Z,61.06
2023-05-11T00:49:42.098Z,61.35
2023-05-11T00:52:21.995Z,61.29
2023-05-11T00:54:52.280Z,61.28
2023-05-11T00:57:35.245Z,61.29
2023-05-11T01:01:06.090Z,61.78
2023-05-11T01:03:59.610Z,61.57
2023-05-11T01:07:03.362Z,61.52
2023-05-11T01:10:15.027Z,61.62
2023-05-11T01:13:10.929Z,61.69
2023-05-11T01:15:52.385Z,61.61
2023-05-11T01:18:55.092Z,61.64
2023-05-11T01:21:51.481Z,61.67
2023-05-11T01:24:55.777Z,61.56
2023-05-11T01:28:16.420Z,61.81
2023-05-11T01:31:02.697Z,61.83
2023-05-11T01:34:47.174Z,61.82
2023-05-11T01:37:41.819Z,61.91
2023-05-11T01:40:25.420Z,61.80
2023-05-11T01:43:17.669Z,61.81
2023-05-11T01:45:59.756Z,62.02
2023-05-11T01:48:51.060Z,61.88
2023-05-11T01:54:13.505Z,61.80
2023-05-11T01:56:57.359Z,61.99
2023-05-11T02:00:20.783Z,61.74
2023-05-11T02:03:13.047Z,61.75
2023-05-11T02:05:45.753Z,61.66
2023-05-11T02:08:34.733Z,61.89
2023-05-11T02:11:12.597Z,61.89
2023-05-11T02:13:54.019Z,61.89
2023-05-11T02:16:48.736Z,61.85
2023-05-11T02:19:42.060Z,62.17
2023-05-11T02:22:47.126Z,62.20
2023-05-11T02:25:50.579Z,62.31
2023-05-11T02:28:31.555Z,62.22
2023-05-11T02:35:24.498Z,61.91
2023-05-11T02:37:59.426Z,61.79
2023-05-11T02:40:50.580Z,61.93
2023-05-11T02:43:50.601Z,61.86
2023-05-11T02:46:31.312Z,61.79
2023-05-11T02:49:27.369Z,61.72
2023-05-11T02:52:23.519Z,61.51
2023-05-11T02:57:52.303Z,61.20
2023-05-11T03:00:37.786Z,61.39
2023-05-11T03:03:38.145Z,61.46
2023-05-11T03:06:28.084Z,61.13
2023-05-11T03:09:40.014Z,61.22
2023-05-11T03:12:50.601Z,61.02
2023-05-11T03:15:37.814Z,60.99
2023-05-11T03:18:37.754Z,61.01
2023-05-11T03:21:52.444Z,60.88
2023-05-11T03:24:40.512Z,60.77
2023-05-11T03:27:30.245Z,60.75
2023-05-11T03:30:08.011Z,60.75
2023-05-11T03:33:02.103Z,60.81
2023-05-11T03:35:54.534Z,60.61
2023-05-11T03:38:34.214Z,60.57
2023-05-11T03:41:17.014Z,60.68
2023-05-11T03:43:55.611Z,60.81
2023-05-11T03:46:30.800Z,60.93
2023-05-11T03:49:07.705Z,60.85
2023-05-11T03:51:53.658Z,60.94
2023-05-11T03:54:42.729Z,60.75
2023-05-11T03:57:48.210Z,60.80
2023-05-11T04:00:25.686Z,60.60
2023-05-11T04:03:19.546Z,60.49
2023-05-11T04:05:54.737Z,60.43
2023-05-11T04:08:42.499Z,60.61
2023-05-11T04:11:19.144Z,60.61
2023-05-11T04:13:53.792Z,60.69
2023-05-11T04:16:41.477Z,60.62
2023-05-11T04:19:26.780Z,60.47
2023-05-11T04:22:20.541Z,60.45
2023-05-11T04:27:53.890Z,60.50
2023-05-11T04:30:27.755Z,60.49
2023-05-11T04:33:01.296Z,60.48
2023-05-11T04:35:59.489Z,60.60
2023-05-11T04:38:28.901Z,60.50
2023-05-11T04:41:15.051Z,60.50
2023-05-11T04:43:54.003Z,60.65
2023-05-11T04:46:41.281Z,60.71
2023-05-11T04:49:50.618Z,60.66
2023-05-11T04:52:25.726Z,60.81
2023-05-11T05:04:31.800Z,60.93
2023-05-11T05:07:53.148Z,60.89
2023-05-11T05:10:35.143Z,60.88
2023-05-11T05:13:07.003Z,61.10
2023-05-11T05:15:53.210Z,60.95
2023-05-11T05:18:43.687Z,60.85
2023-05-11T05:21:49.190Z,60.78
2023-05-11T05:24:35.922Z,60.71
2023-05-11T05:27:20.569Z,60.79
2023-05-11T05:29:55.317Z,60.62
2023-05-11T05:33:25.630Z,60.79
2023-05-11T05:36:11.995Z,60.74
2023-05-11T05:38:50.641Z,60.99
2023-05-11T05:41:44.654Z,60.94
2023-05-11T05:44:44.681Z,61.21
2023-05-11T05:47:45.940Z,61.05
2023-05-11T05:50:49.695Z,61.11
2023-05-11T05:53:25.187Z,60.97
2023-05-11T05:56:14.596Z,60.96
2023-05-11T05:58:50.563Z,60.97
2023-05-11T06:01:35.239Z,60.70
2023-05-11T06:04:25.442Z,60.78
2023-05-11T06:07:14.910Z,60.44
2023-05-11T06:09:55.587Z,60.70
2023-05-11T06:12:49.030Z,60.26
2023-05-11T06:15:44.589Z,60.21
2023-05-11T06:18:50.618Z,60.47
2023-05-11T06:21:54.641Z,60.40
2023-05-11T06:24:50.641Z,60.51
2023-05-11T06:27:32.572Z,60.58
2023-05-11T06:30:14.619Z,60.60
2023-05-11T06:32:56.496Z,60.89
2023-05-11T06:35:45.701Z,61.11
2023-05-11T06:38:20.676Z,61.22
2023-05-11T06:41:14.670Z,61.17
2023-05-11T06:44:03.260Z,61.04
2023-05-11T06:47:03.323Z,60.84
2023-05-11T06:49:55.842Z,60.81
2023-05-11T06:52:50.624Z,60.76
2023-05-11T06:55:29.567Z,60.71
2023-05-11T06:58:20.773Z,60.29
2023-05-11T07:01:23.512Z,59.72
2023-05-11T07:04:23.499Z,59.75
2023-05-11T07:07:19.400Z,59.64
2023-05-11T07:10:05.219Z,59.60
2023-05-11T07:12:49.298Z,59.51
2023-05-11T07:15:28.651Z,59.16
2023-05-11T07:18:11.441Z,58.93
2023-05-11T07:20:53.328Z,58.56
2023-05-11T07:23:43.218Z,58.30
2023-05-11T07:26:23.442Z,57.96
2023-05-11T07:31:56.212Z,58.06
2023-05-11T07:34:33.181Z,58.51
2023-05-11T07:37:26.144Z,58.58
2023-05-11T07:40:08.269Z,58.99
2023-05-11T07:43:14.570Z,59.22
2023-05-11T07:45:47.539Z,59.83
2023-05-11T07:48:33.702Z,59.81
2023-05-11T07:51:20.591Z,59.72
2023-05-11T07:54:12.016Z,59.87
2023-05-11T07:56:44.995Z,59.81
2023-05-11T07:59:27.251Z,60.18
2023-05-11T08:02:03.807Z,60.03
2023-05-11T08:04:55.435Z,60.14
2023-05-11T08:07:25.911Z,59.81
2023-05-11T08:10:07.683Z,59.84
2023-05-11T08:12:47.093Z,60.17
2023-05-11T08:15:28.345Z,59.89
2023-05-11T08:17:59.729Z,59.75
2023-05-11T08:20:38.369Z,59.80
2023-05-11T08:23:24.741Z,59.74
2023-05-11T08:25:57.237Z,58.82
2023-05-11T08:28:25.802Z,58.51
2023-05-11T08:30:58.561Z,58.74
2023-05-11T08:36:14.036Z,57.91
2023-05-11T08:38:50.607Z,57.73
2023-05-11T08:41:25.842Z,57.19
2023-05-11T08:43:56.085Z,56.56
2023-05-11T08:46:28.890Z,56.65
2023-05-11T08:48:57.339Z,56.39
2023-05-11T08:51:29.395Z,56.38
2023-05-11T08:53:59.839Z,56.01
2023-05-11T08:56:31.717Z,55.52
2023-05-11T08:59:17.100Z,55.79
2023-05-11T09:01:50.588Z,55.96
2023-05-11T09:04:19.588Z,56.35
2023-05-11T09:06:50.591Z,56.20
2023-05-11T09:09:36.292Z,55.92
2023-05-11T09:12:10.488Z,55.74
2023-05-11T09:17:33.271Z,55.90
2023-05-11T09:20:25.470Z,55.71
2023-05-11T09:22:56.438Z,56.00
2023-05-11T09:25:36.771Z,56.19
2023-05-11T09:28:25.468Z,56.06
2023-05-11T09:30:57.961Z,56.08
